Aeroporto :
LOGIN :

Iscrizione | Disclaimer

   EN    FR    IT 

 










Sommario :    VFR   VFR Marginale   IFR   IFR Intensivo   IFR Molto Intensivo
Visibilità : 
Base nubi : 
>= 8 km
>= 3000ft
5 / 8 km
1000 / 3000 ft
1500m / 5 km
500 / 1000 ft
800 / 1500m
200 / 500 ft
< 800m
< 200 ft
Simboli :   Temporali  Nebbia  Neve Forte  Precipitazioni Forti  Vento > 20 kt
SIGMETs :   Varie  Temporali  Ghiacco  Turbolenza  Onda orograficha  Ceneri Vulcaniche






- Altitudine del aeroporto : 294 ft
- Codice IATA : NAP


LIRN - Naples Capodichino

ULTIMO METAR :
  • 220720Z 02003KT 330V060 9999 -RA SCT020 BKN050 11/10 Q1014 NOSIG

METARs OBSOLETI :
  • 220650Z VRB02KT 8000 -RA SCT020 BKN050 10/09 Q1014 NOSIG
  • 220620Z 07003KT 9999 -RA SCT025 BKN060 10/09 Q1014 NOSIG
  • 220550Z VRB02KT 9999 -RA SCT025 BKN060 10/09 Q1014 NOSIG
  • 220520Z 31003KT 290V350 9999 -RA SCT025 BKN060 10/09 Q1014 TEMPO 4000 TSRA
  • 220450Z VRB02KT 9999 -RA SCT030 BKN070 10/09 Q1013 TEMPO 4000 TSRA

TAF TAF LIRN
Valido dal 22 a 06 ore il 23 a 06 ore UTC


220500Z 2206/2306 VRB05KT 7000 RA SCT020 BKN060
TEMPO 2206/2212 TSRA
BECMG 2210/2212 18012KT NSW



MetMap, La meteo Aeronautica in un colpo d'occhio ! - Copyright ORBIFLY Dicembre 2007 - Disclaimer

ORBIFLY MET'MAP TEAM :

Programmazione e sviluppo : Alexandra Zaïnal
Concezione e sviluppo : Baudouin d'Aumeries
Co-Programmazione e sviluppo : Marc-Olivier Méhu
Supporto tecnico e logistico : Manuel Goepfert
Aiuto per la traduzione : Arnaldo La Scala

Contatto : metmap@orbifly.com




FONTI E CREDITI :

   NOAA